Terminal Aerodrome Forecast
Issued by NWS

Home | Current Version | Previous Version | Text Only | Print | Product List | Glossary Off
Versions: 1 2 3 4 5 6 7 8 9 10 11 12 13 14

000
FTUS45 KGGW 260530
TAFGDV
TAF
KGDV 260530Z 2606/2706 07006KT P6SM SKC
     FM261400 14006KT P6SM SKC
     FM261800 15010KT P6SM SKC
     FM270400 14014G23KT P6SM SCT210=

USA.gov is the U.S. government's official web portal to all federal, state and local government web resources and services.